createdAt,value
2023-02-23T00:00:14.908Z,100119.97
2023-02-23T00:05:17.464Z,100117.19
2023-02-23T00:10:18.978Z,100114.34
2023-02-23T00:15:20.561Z,100116.38
2023-02-23T00:20:23.832Z,100122.59
2023-02-23T00:25:25.914Z,100111.50
2023-02-23T00:30:27.340Z,100116.16
2023-02-23T00:35:28.909Z,100115.28
2023-02-23T00:40:30.407Z,100116.16
2023-02-23T00:45:31.900Z,100104.53
2023-02-23T00:50:33.454Z,100110.38
2023-02-23T00:55:34.964Z,100105.13
2023-02-23T01:00:36.540Z,100100.94
2023-02-23T01:05:37.951Z,100107.97
2023-02-23T01:10:41.350Z,100099.84
2023-02-23T01:15:44.211Z,100097.22
2023-02-23T01:20:47.059Z,100108.84
2023-02-23T01:25:48.618Z,100107.41
2023-02-23T01:30:50.780Z,100105.50
2023-02-23T01:35:59.445Z,100103.56
2023-02-23T01:41:01.039Z,100101.66
2023-02-23T01:46:03.361Z,100100.84
2023-02-23T01:51:11.538Z,100109.66
2023-02-23T01:56:21.121Z,100097.84
2023-02-23T02:01:23.251Z,100101.53
2023-02-23T02:06:26.504Z,100096.28
2023-02-23T02:11:28.005Z,100090.53
2023-02-23T02:16:34.553Z,100088.72
2023-02-23T02:21:47.238Z,100088.00
2023-02-23T02:27:33.479Z,100085.16
2023-02-23T02:32:55.957Z,100082.88
2023-02-23T02:38:03.096Z,100083.72
2023-02-23T02:43:36.823Z,100086.34
2023-02-23T02:48:58.838Z,100075.81
2023-02-23T02:54:10.530Z,100076.44
2023-02-23T02:59:15.036Z,100066.59
2023-02-23T03:04:23.368Z,100066.00
2023-02-23T03:09:49.496Z,100067.06
2023-02-23T03:14:51.035Z,100068.88
2023-02-23T03:19:58.924Z,100064.22
2023-02-23T03:25:07.875Z,100062.75
2023-02-23T03:30:15.122Z,100067.22
2023-02-23T03:35:30.529Z,100064.59
2023-02-23T03:40:39.771Z,100065.63
2023-02-23T03:45:45.197Z,100072.50
2023-02-23T03:50:52.396Z,100069.69
2023-02-23T03:55:57.780Z,100074.03
2023-02-23T04:01:02.970Z,100078.78
2023-02-23T04:06:08.664Z,100079.19
2023-02-23T04:11:31.219Z,100085.06
2023-02-23T04:16:33.613Z,100082.50
2023-02-23T04:21:35.208Z,100080.59
2023-02-23T04:26:36.700Z,100089.22
2023-02-23T04:31:38.721Z,100089.84
2023-02-23T04:36:40.738Z,100090.41
2023-02-23T04:41:42.222Z,100096.25
2023-02-23T04:46:43.767Z,100096.25
2023-02-23T04:51:45.239Z,100095.31
2023-02-23T04:56:46.712Z,100082.38
2023-02-23T05:01:48.707Z,100090.97
2023-02-23T05:06:50.600Z,100089.34
2023-02-23T05:11:52.221Z,100093.28
2023-02-23T05:16:54.826Z,100091.50
2023-02-23T05:21:56.529Z,100091.97
2023-02-23T05:26:58.133Z,100093.50
2023-02-23T05:31:59.911Z,100096.00
2023-02-23T05:37:01.534Z,100098.44
2023-02-23T05:42:03.125Z,100099.03
2023-02-23T05:47:04.877Z,100103.81
2023-02-23T05:52:06.345Z,100100.47
2023-02-23T05:57:07.787Z,100109.28
2023-02-23T06:02:09.246Z,100110.78
2023-02-23T06:07:11.010Z,100104.19
2023-02-23T06:12:12.485Z,100105.22
2023-02-23T06:17:13.939Z,100114.94
2023-02-23T06:22:17.661Z,100112.91
2023-02-23T06:27:19.214Z,100126.91
2023-02-23T06:32:20.822Z,100127.13
2023-02-23T06:37:22.424Z,100123.06
2023-02-23T06:42:24.664Z,100126.69
2023-02-23T06:47:26.174Z,100135.91
2023-02-23T06:52:27.669Z,100129.53
2023-02-23T06:57:29.119Z,100138.25
2023-02-23T07:02:30.811Z,100142.59
2023-02-23T07:07:32.441Z,100146.66
2023-02-23T07:12:33.922Z,100154.06
2023-02-23T07:17:38.138Z,100159.94
2023-02-23T07:22:40.147Z,100163.56
2023-02-23T07:27:41.624Z,100165.22
2023-02-23T07:32:43.143Z,100172.38
2023-02-23T07:37:44.911Z,100175.84
2023-02-23T07:42:46.391Z,100182.41
2023-02-23T07:47:48.061Z,100185.66
2023-02-23T07:52:50.820Z,100185.28
2023-02-23T07:57:52.409Z,100189.59
2023-02-23T08:02:54.171Z,100196.06
2023-02-23T08:08:00.305Z,100196.38
2023-02-23T08:13:02.044Z,100192.31
2023-02-23T08:18:05.944Z,100195.16
2023-02-23T08:23:07.793Z,100189.38
2023-02-23T08:28:09.369Z,100195.31
2023-02-23T08:33:10.846Z,100192.16
2023-02-23T08:38:12.656Z,100194.91
2023-02-23T08:43:14.302Z,100191.94
2023-02-23T08:48:15.742Z,100199.97
2023-02-23T08:53:17.497Z,100207.94
2023-02-23T08:58:19.044Z,100209.88
2023-02-23T09:03:21.364Z,100209.94
2023-02-23T09:08:23.462Z,100210.78
2023-02-23T09:13:27.692Z,100217.66
2023-02-23T09:18:30.009Z,100217.50
2023-02-23T09:23:31.505Z,100229.66
2023-02-23T09:28:33.213Z,100220.66
2023-02-23T09:33:35.407Z,100224.63
2023-02-23T09:38:37.052Z,100237.25
2023-02-23T09:44:07.547Z,100243.16
2023-02-23T09:49:15.642Z,100250.38
2023-02-23T09:54:18.721Z,100239.91
2023-02-23T09:59:22.420Z,100250.28
2023-02-23T10:04:28.433Z,100254.34
2023-02-23T10:10:00.738Z,100266.22
2023-02-23T10:15:11.301Z,100264.44
2023-02-23T10:21:03.250Z,100266.34
2023-02-23T10:26:06.710Z,100270.03
2023-02-23T10:31:27.974Z,100272.56
2023-02-23T10:36:39.502Z,100277.84
2023-02-23T10:41:42.281Z,100275.72
2023-02-23T10:46:45.747Z,100278.28
2023-02-23T10:51:47.453Z,100287.13
2023-02-23T10:56:49.188Z,100289.03
2023-02-23T11:02:01.439Z,100292.25
2023-02-23T11:07:08.219Z,100296.69
2023-02-23T11:12:22.414Z,100293.41
2023-02-23T11:17:34.849Z,100292.66
2023-02-23T11:22:40.901Z,100294.72
2023-02-23T11:27:48.199Z,100294.13
2023-02-23T11:32:56.636Z,100285.69
2023-02-23T11:38:16.060Z,100276.56
2023-02-23T11:43:18.027Z,100276.88
2023-02-23T11:48:34.025Z,100269.22
2023-02-23T11:53:38.915Z,100261.94
2023-02-23T11:58:47.185Z,100262.38
2023-02-23T12:03:57.594Z,100263.78
2023-02-23T12:09:04.939Z,100263.78
2023-02-23T12:14:27.849Z,100259.75
2023-02-23T12:19:44.021Z,100251.16
2023-02-23T12:24:54.067Z,100255.75
2023-02-23T12:30:12.068Z,100249.03
2023-02-23T12:35:21.650Z,100243.81
2023-02-23T12:40:27.489Z,100246.22
2023-02-23T12:45:37.211Z,100243.03
2023-02-23T12:50:42.877Z,100236.38
2023-02-23T12:56:03.168Z,100232.25
2023-02-23T13:01:28.037Z,100228.25
2023-02-23T13:06:47.298Z,100233.13
2023-02-23T13:12:14.889Z,100227.69
2023-02-23T13:17:37.007Z,100223.06
2023-02-23T13:22:50.594Z,100220.72
2023-02-23T13:27:58.584Z,100225.59
2023-02-23T13:33:09.358Z,100229.53
2023-02-23T13:38:29.422Z,100231.16
2023-02-23T13:43:37.537Z,100233.56
2023-02-23T13:48:58.064Z,100236.91
2023-02-23T13:54:14.433Z,100236.78
2023-02-23T13:59:22.326Z,100236.34
2023-02-23T14:04:36.697Z,100233.84
2023-02-23T14:09:47.640Z,100232.03
2023-02-23T14:14:49.468Z,100225.78
2023-02-23T14:20:17.876Z,100238.28
2023-02-23T14:25:35.245Z,100240.22
2023-02-23T14:30:48.144Z,100239.09
2023-02-23T14:35:49.771Z,100234.38
2023-02-23T14:40:54.047Z,100233.44
2023-02-23T14:45:56.083Z,100232.00
2023-02-23T14:51:34.866Z,100228.94
2023-02-23T14:56:46.365Z,100227.81
2023-02-23T15:01:49.869Z,100235.19
2023-02-23T15:07:00.835Z,100228.63
2023-02-23T15:12:12.107Z,100241.00
2023-02-23T15:17:18.039Z,100237.66
2023-02-23T15:22:27.729Z,100245.56
2023-02-23T15:27:41.186Z,100243.25
2023-02-23T15:32:42.895Z,100247.50
2023-02-23T15:37:55.411Z,100244.97
2023-02-23T15:43:11.446Z,100240.34
2023-02-23T15:48:17.890Z,100240.94
2023-02-23T15:53:39.863Z,100247.44
2023-02-23T15:58:56.498Z,100249.47
2023-02-23T16:04:07.014Z,100255.75
2023-02-23T16:09:15.407Z,100253.75
2023-02-23T16:14:19.177Z,100262.50
2023-02-23T16:19:23.139Z,100264.38
2023-02-23T16:24:28.199Z,100268.84
2023-02-23T16:29:37.175Z,100271.34
2023-02-23T16:34:50.440Z,100273.84
2023-02-23T16:39:52.637Z,100270.97
2023-02-23T16:44:54.566Z,100267.75
2023-02-23T16:49:56.137Z,100268.56
2023-02-23T16:54:57.764Z,100272.84
2023-02-23T16:59:59.286Z,100275.00
2023-02-23T17:05:01.117Z,100283.34
2023-02-23T17:10:02.579Z,100285.56
2023-02-23T17:15:04.380Z,100290.59
2023-02-23T17:20:06.712Z,100296.38
2023-02-23T17:25:08.600Z,100296.88
2023-02-23T17:30:11.227Z,100298.50
2023-02-23T17:35:13.086Z,100305.38
2023-02-23T17:40:19.216Z,100316.97
2023-02-23T17:45:21.087Z,100311.88
2023-02-23T17:50:22.931Z,100317.41
2023-02-23T17:55:25.132Z,100315.72
2023-02-23T18:00:26.730Z,100312.41
2023-02-23T18:05:28.480Z,100311.69
2023-02-23T18:10:30.108Z,100314.53
2023-02-23T18:15:32.655Z,100304.13
2023-02-23T18:20:34.306Z,100306.19
2023-02-23T18:25:36.274Z,100305.97
2023-02-23T18:30:37.895Z,100305.16
2023-02-23T18:35:43.826Z,100308.38
2023-02-23T18:40:45.379Z,100303.00
2023-02-23T18:45:46.839Z,100308.63
2023-02-23T18:50:48.305Z,100305.91
2023-02-23T18:55:49.777Z,100307.13
2023-02-23T19:00:51.375Z,100310.25
2023-02-23T19:05:52.862Z,100308.00
2023-02-23T19:10:54.458Z,100309.34
2023-02-23T19:15:55.942Z,100306.94
2023-02-23T19:20:57.354Z,100307.03
2023-02-23T19:25:59.380Z,100306.34
2023-02-23T19:31:06.484Z,100304.53
2023-02-23T19:36:11.860Z,100302.88
2023-02-23T19:41:16.068Z,100308.66
2023-02-23T19:46:17.669Z,100310.31
2023-02-23T19:51:20.370Z,100311.41
2023-02-23T19:56:23.100Z,100312.50
2023-02-23T20:01:25.844Z,100315.38
2023-02-23T20:06:30.371Z,100328.31
2023-02-23T20:11:32.421Z,100329.25
2023-02-23T20:16:35.383Z,100322.19
2023-02-23T20:21:37.289Z,100325.69
2023-02-23T20:26:38.909Z,100338.16
2023-02-23T20:31:43.932Z,100343.28
2023-02-23T20:36:46.002Z,100342.44
2023-02-23T20:41:47.628Z,100340.28
2023-02-23T20:46:49.342Z,100343.63
2023-02-23T20:51:51.373Z,100335.53
2023-02-23T20:56:52.989Z,100335.97
2023-02-23T21:01:55.019Z,100344.03
2023-02-23T21:06:57.727Z,100334.81
2023-02-23T21:11:59.204Z,100334.31
2023-02-23T21:17:00.697Z,100336.72
2023-02-23T21:22:03.467Z,100336.72
2023-02-23T21:27:04.975Z,100324.88
2023-02-23T21:32:08.111Z,100335.03
2023-02-23T21:37:09.733Z,100326.41
2023-02-23T21:42:11.380Z,100325.09
2023-02-23T21:47:13.118Z,100320.53
2023-02-23T21:52:16.776Z,100320.66
2023-02-23T21:57:18.841Z,100329.06
2023-02-23T22:02:20.562Z,100312.91
2023-02-23T22:07:22.102Z,100325.25
2023-02-23T22:12:23.560Z,100313.50
2023-02-23T22:17:25.617Z,100316.75
2023-02-23T22:22:27.249Z,100315.28
2023-02-23T22:27:28.747Z,100315.78
2023-02-23T22:32:30.541Z,100309.88
2023-02-23T22:37:32.577Z,100296.13
2023-02-23T22:42:34.129Z,100296.72
2023-02-23T22:47:35.773Z,100292.66
2023-02-23T22:52:37.479Z,100294.81
2023-02-23T22:57:39.644Z,100293.38
2023-02-23T23:02:41.124Z,100292.53
2023-02-23T23:07:42.900Z,100283.09
2023-02-23T23:12:44.882Z,100277.44
2023-02-23T23:17:46.802Z,100270.88
2023-02-23T23:22:48.476Z,100279.25
2023-02-23T23:27:51.180Z,100260.72
2023-02-23T23:32:52.677Z,100255.44
2023-02-23T23:37:54.233Z,100253.03
2023-02-23T23:42:55.848Z,100246.44
2023-02-23T23:47:58.457Z,100234.84
2023-02-23T23:53:00.051Z,100231.63
2023-02-23T23:58:01.599Z,100225.75
